Time;durP1;ratioP1;P1;durP2;ratioP2;P2;SDS_P1;SDS_P2;PMS_P1;PMS_P2;Temp;Humidity;BMP_temperature;BMP_pressure;BME280_temperature;BME280_humidity;BME280_pressure;Samples;Min_cycle;Max_cycle;Signal;HPM_P1;HPM_P2
2023/01/28 00:01:54;;;;;;;236.50;9.50;;;;;;;1.47;100.00;98507.84;5032674;28;20044;-57
2023/01/28 00:04:20;;;;;;;248.82;10.27;;;;;;;1.52;100.00;98510.63;5031764;28;20095;-59
2023/01/28 00:06:45;;;;;;;254.02;10.32;;;;;;;1.54;100.00;98507.31;5030850;28;20169;-57
2023/01/28 00:09:11;;;;;;;291.55;11.88;;;;;;;1.58;100.00;98503.16;5030306;28;20434;-57
2023/01/28 00:11:36;;;;;;;272.70;11.35;;;;;;;1.58;100.00;98504.84;5031447;28;20036;-59
2023/01/28 00:14:03;;;;;;;265.58;10.68;;;;;;;1.62;100.00;98499.03;5032891;28;20147;-58
2023/01/28 00:16:29;;;;;;;284.67;11.07;;;;;;;1.42;100.00;98488.84;5030343;28;20090;-58
2023/01/28 00:18:54;;;;;;;262.25;10.57;;;;;;;1.56;100.00;98492.00;5032466;28;20032;-57
2023/01/28 00:21:20;;;;;;;303.92;11.85;;;;;;;1.57;100.00;98496.28;5031142;28;20087;-56
2023/01/28 00:23:53;;;;;;;273.80;10.27;;;;;;;1.56;100.00;98494.56;5031199;28;20025;-55
2023/01/28 00:26:20;;;;;;;203.23;8.82;;;;;;;1.46;100.00;98494.97;5030398;28;20036;-56
2023/01/28 00:28:46;;;;;;;251.32;10.60;;;;;;;1.62;100.00;98497.34;5031466;28;20799;-54
2023/01/28 00:31:16;;;;;;;225.20;9.60;;;;;;;1.61;100.00;98495.59;5032221;28;20037;-55
2023/01/28 00:33:42;;;;;;;239.48;9.73;;;;;;;1.61;100.00;98489.59;5032207;28;20216;-55
2023/01/28 00:36:08;;;;;;;249.48;10.18;;;;;;;1.55;100.00;98497.91;5031929;28;20029;-56
2023/01/28 00:38:34;;;;;;;284.40;11.57;;;;;;;1.59;100.00;98489.53;5030493;28;20091;-57
2023/01/28 00:41:13;;;;;;;263.70;10.77;;;;;;;1.64;100.00;98495.72;5030620;28;20045;-55
2023/01/28 00:43:40;;;;;;;168.52;8.02;;;;;;;1.57;100.00;98491.16;5031864;28;20744;-56
2023/01/28 00:46:07;;;;;;;194.07;9.00;;;;;;;1.46;100.00;98485.59;5031645;28;20042;-56
2023/01/28 00:48:33;;;;;;;159.15;7.75;;;;;;;1.48;100.00;98490.78;5032872;28;20659;-56
2023/01/28 00:50:59;;;;;;;211.52;9.93;;;;;;;1.55;100.00;98493.66;5031205;28;20044;-56
2023/01/28 00:53:24;;;;;;;289.55;11.98;;;;;;;1.65;100.00;98496.59;5029089;28;20029;-55
2023/01/28 00:55:51;;;;;;;172.15;8.48;;;;;;;1.65;100.00;98499.16;5029890;28;20136;-55
2023/01/28 00:58:16;;;;;;;168.48;7.35;;;;;;;1.52;100.00;98502.94;5030831;28;20025;-55
2023/01/28 01:00:42;;;;;;;197.40;8.30;;;;;;;1.63;100.00;98500.81;5029543;28;20039;-56
2023/01/28 01:03:07;;;;;;;221.93;9.90;;;;;;;1.72;100.00;98503.75;5030273;28;20031;-58
2023/01/28 01:05:33;;;;;;;266.30;10.73;;;;;;;1.62;100.00;98502.47;5028767;28;20045;-55
2023/01/28 01:07:59;;;;;;;208.88;8.82;;;;;;;1.67;100.00;98498.41;5031017;28;20789;-55
2023/01/28 01:10:25;;;;;;;189.93;7.90;;;;;;;1.46;100.00;98500.97;5029809;28;20056;-55
2023/01/28 01:12:50;;;;;;;219.40;9.60;;;;;;;1.59;100.00;98512.59;5032871;28;20645;-53
2023/01/28 01:15:17;;;;;;;186.20;8.60;;;;;;;1.47;100.00;98509.53;5031491;28;20039;-53
2023/01/28 01:17:45;;;;;;;211.50;8.93;;;;;;;1.51;100.00;98506.28;5031534;28;20044;-53
2023/01/28 01:20:22;;;;;;;194.30;8.90;;;;;;;1.66;100.00;98513.72;5030297;28;20103;-53
2023/01/28 01:22:47;;;;;;;202.38;9.00;;;;;;;1.57;100.00;98509.13;5013083;28;20382;-54
2023/01/28 01:25:15;;;;;;;174.00;8.00;;;;;;;1.53;100.00;98512.38;5029981;28;20491;-54
2023/01/28 01:27:41;;;;;;;242.00;10.15;;;;;;;1.68;100.00;98510.41;5032647;28;20025;-55
2023/01/28 01:30:08;;;;;;;224.85;9.70;;;;;;;1.58;100.00;98510.88;5034212;28;20128;-55
2023/01/28 01:32:34;;;;;;;208.15;8.95;;;;;;;1.60;100.00;98514.34;5034272;28;20021;-55
2023/01/28 01:35:00;;;;;;;184.70;8.73;;;;;;;1.55;100.00;98514.19;5034455;28;20043;-54
2023/01/28 01:37:26;;;;;;;241.15;10.70;;;;;;;1.71;100.00;98511.38;5034216;28;20036;-56
2023/01/28 01:39:52;;;;;;;209.68;9.18;;;;;;;1.65;100.00;98514.56;5035030;28;20061;-57
2023/01/28 01:42:18;;;;;;;234.82;9.95;;;;;;;1.49;100.00;98519.03;5033544;28;20033;-56
2023/01/28 01:45:04;;;;;;;184.45;8.70;;;;;;;1.56;100.00;98525.31;5033467;28;20064;-56
2023/01/28 01:47:43;;;;;;;280.40;11.30;;;;;;;1.61;100.00;98526.38;5034591;28;20041;-56
2023/01/28 01:50:14;;;;;;;194.95;8.90;;;;;;;1.57;100.00;98521.94;5033697;28;20105;-55
2023/01/28 01:52:41;;;;;;;256.45;11.20;;;;;;;1.67;100.00;98530.88;5033327;28;20848;-56
2023/01/28 01:55:13;;;;;;;238.05;10.88;;;;;;;1.64;100.00;98534.19;5033102;28;20040;-56
2023/01/28 01:57:38;;;;;;;307.17;11.95;;;;;;;1.52;100.00;98528.56;5033894;28;20041;-58
2023/01/28 02:00:06;;;;;;;275.15;11.43;;;;;;;1.45;100.00;98531.69;5017794;28;20181;-56
2023/01/28 02:02:44;;;;;;;244.02;10.55;;;;;;;1.62;100.00;98525.56;5033642;28;20051;-56
2023/01/28 02:05:12;;;;;;;160.07;7.88;;;;;;;1.52;100.00;98534.56;5034789;28;20059;-57
2023/01/28 02:07:37;;;;;;;220.00;9.93;;;;;;;1.67;100.00;98528.31;5032556;28;20855;-53
2023/01/28 02:10:05;;;;;;;187.65;9.35;;;;;;;1.60;100.00;98532.28;5031937;28;20029;-53
2023/01/28 02:12:39;;;;;;;259.23;11.25;;;;;;;1.56;100.00;98535.56;5030421;28;20044;-55
2023/01/28 02:15:06;;;;;;;189.05;9.45;;;;;;;1.65;100.00;98533.38;5032263;28;20128;-56
2023/01/28 02:17:31;;;;;;;293.02;11.50;;;;;;;1.63;100.00;98537.56;5030551;28;20551;-57
2023/01/28 02:20:06;;;;;;;210.95;9.70;;;;;;;1.51;100.00;98537.06;5033484;28;20033;-54
2023/01/28 02:22:59;;;;;;;181.40;8.88;;;;;;;1.56;100.00;98539.00;5033902;28;20575;-54
2023/01/28 02:25:49;;;;;;;180.98;12.07;;;;;;;1.55;100.00;98533.81;5035058;28;20083;-54
2023/01/28 02:28:20;;;;;;;211.43;29.58;;;;;;;1.46;100.00;98536.00;5038346;28;20738;-57
2023/01/28 02:31:08;;;;;;;237.23;36.72;;;;;;;1.45;100.00;98531.69;5036866;28;20036;-56
2023/01/28 02:33:58;;;;;;;257.35;41.30;;;;;;;1.55;100.00;98533.81;5034095;28;20032;-56
2023/01/28 02:36:47;;;;;;;252.93;50.95;;;;;;;1.40;100.00;98534.03;5032998;28;20152;-58
2023/01/28 02:39:24;;;;;;;260.08;61.13;;;;;;;1.57;100.00;98534.75;5036419;28;20025;-58
2023/01/28 02:42:16;;;;;;;234.23;45.47;;;;;;;1.46;100.00;98529.19;5035116;28;20037;-57
2023/01/28 02:44:42;;;;;;;179.85;46.33;;;;;;;1.49;100.00;98529.28;5035535;28;20032;-56
2023/01/28 02:49:58;;;;;;;169.57;32.35;;;;;;;1.51;100.00;98542.19;5036341;28;20800;-58
2023/01/28 02:55:29;;;;;;;226.68;29.00;;;;;;;1.53;100.00;98549.13;5032625;28;20036;-57
2023/01/28 02:58:26;;;;;;;219.25;34.58;;;;;;;1.43;100.00;98545.31;5037033;28;20140;-56
2023/01/28 03:01:18;;;;;;;232.90;36.92;;;;;;;1.56;100.00;98544.13;5031285;28;20041;-56
2023/01/28 03:03:50;;;;;;;274.58;42.50;;;;;;;1.51;100.00;98550.75;5031637;28;20111;-56
2023/01/28 03:06:20;;;;;;;238.15;43.45;;;;;;;1.41;100.00;98539.22;5036534;28;20075;-56
2023/01/28 03:37:31;;;;;;;245.15;35.45;;;;;;;1.49;100.00;98557.50;5032145;28;20091;-58
2023/01/28 03:40:01;;;;;;;207.48;34.08;;;;;;;1.55;100.00;98564.56;5032118;28;20759;-56
2023/01/28 03:42:26;;;;;;;252.95;34.92;;;;;;;1.49;100.00;98567.75;5034768;28;20147;-56
2023/01/28 03:44:52;;;;;;;225.75;32.97;;;;;;;1.49;100.00;98572.03;5035458;28;20115;-56
2023/01/28 03:47:20;;;;;;;175.93;29.95;;;;;;;1.50;100.00;98573.75;5035627;28;20147;-57
2023/01/28 03:49:50;;;;;;;244.32;34.83;;;;;;;1.42;100.00;98571.75;5035964;28;20031;-58
2023/01/28 03:52:21;;;;;;;216.68;32.15;;;;;;;1.38;100.00;98577.53;5034481;28;20549;-56
2023/01/28 03:54:47;;;;;;;242.50;34.25;;;;;;;1.44;100.00;98584.63;5033663;28;20033;-57
2023/01/28 03:57:14;;;;;;;196.52;34.92;;;;;;;1.30;100.00;98577.22;5034775;28;20051;-56
2023/01/28 03:59:40;;;;;;;273.83;35.70;;;;;;;1.27;100.00;98577.09;5036141;28;20036;-58
2023/01/28 04:02:06;;;;;;;217.30;36.72;;;;;;;1.44;100.00;98582.06;5034804;28;20029;-57
2023/01/28 04:04:32;;;;;;;245.50;34.15;;;;;;;1.50;100.00;98584.00;5035124;28;20035;-57
2023/01/28 04:06:58;;;;;;;244.50;31.20;;;;;;;1.46;100.00;98587.25;5033978;28;20044;-56
2023/01/28 04:09:23;;;;;;;214.60;33.58;;;;;;;1.39;100.00;98589.56;5033937;28;20036;-58
2023/01/28 04:11:52;;;;;;;197.90;36.15;;;;;;;1.43;100.00;98578.66;5033800;28;20041;-58
2023/01/28 04:14:18;;;;;;;195.85;36.00;;;;;;;1.42;100.00;98591.38;5034203;28;20029;-57
2023/01/28 04:16:43;;;;;;;217.55;34.42;;;;;;;1.32;100.00;98589.22;5034151;28;20037;-57
2023/01/28 04:19:09;;;;;;;249.40;36.30;;;;;;;1.42;100.00;98591.38;5034953;28;20025;-57
2023/01/28 04:21:35;;;;;;;222.10;40.72;;;;;;;1.32;100.00;98590.13;5035178;28;20548;-56
2023/01/28 04:24:00;;;;;;;244.63;39.60;;;;;;;1.42;100.00;98592.25;5035794;28;20025;-58
2023/01/28 04:26:27;;;;;;;228.77;39.28;;;;;;;1.30;100.00;98589.19;5034637;28;20033;-57
2023/01/28 04:28:52;;;;;;;239.60;41.00;;;;;;;1.36;100.00;98592.00;5035004;28;20033;-56
2023/01/28 04:31:17;;;;;;;265.55;41.70;;;;;;;1.32;100.00;98595.25;5033018;28;20060;-55
2023/01/28 04:33:43;;;;;;;210.75;39.63;;;;;;;1.28;100.00;98601.94;5034363;28;20029;-57
2023/01/28 04:36:08;;;;;;;257.00;43.05;;;;;;;1.38;100.00;98604.88;5032475;28;20096;-58
2023/01/28 04:38:34;;;;;;;284.45;44.15;;;;;;;1.35;100.00;98604.75;5033311;28;20025;-56
2023/01/28 04:40:59;;;;;;;236.05;43.55;;;;;;;1.30;100.00;98607.13;5033523;28;20075;-56
2023/01/28 04:43:24;;;;;;;215.57;44.67;;;;;;;1.35;100.00;98608.19;5035993;28;20056;-57
2023/01/28 04:45:50;;;;;;;205.85;44.25;;;;;;;1.27;100.00;98609.56;5033873;28;20075;-56
2023/01/28 04:48:16;;;;;;;265.98;45.50;;;;;;;1.45;100.00;98606.91;5033971;28;20108;-56
2023/01/28 04:50:42;;;;;;;268.92;46.22;;;;;;;1.40;100.00;98606.69;5032377;28;20040;-56
2023/01/28 04:53:08;;;;;;;223.85;43.08;;;;;;;1.41;100.00;98611.00;5035123;28;20037;-56
2023/01/28 04:55:33;;;;;;;222.57;31.02;;;;;;;1.30;100.00;98612.25;5035824;28;20055;-57
2023/01/28 04:57:59;;;;;;;252.73;33.15;;;;;;;1.39;100.00;98610.09;5033232;28;20108;-58
2023/01/28 05:00:24;;;;;;;226.95;31.60;;;;;;;1.37;100.00;98609.13;5033170;28;20040;-55
2023/01/28 05:02:49;;;;;;;228.55;31.98;;;;;;;1.38;100.00;98608.31;5032730;28;20029;-57
2023/01/28 05:05:15;;;;;;;194.02;31.63;;;;;;;1.33;100.00;98602.09;5034538;28;20737;-56
2023/01/28 05:07:41;;;;;;;200.25;26.15;;;;;;;1.25;100.00;98611.16;5037301;28;20053;-57
2023/01/28 05:10:07;;;;;;;253.15;31.77;;;;;;;1.25;100.00;98611.16;5037095;28;20838;-57
2023/01/28 05:12:33;;;;;;;207.30;24.42;;;;;;;1.31;100.00;98606.31;5038017;28;20028;-56
2023/01/28 05:15:02;;;;;;;210.25;28.25;;;;;;;1.40;100.00;98609.25;5037721;28;20020;-57
2023/01/28 05:17:27;;;;;;;214.48;28.58;;;;;;;1.30;100.00;98612.25;5038316;28;20738;-56
2023/01/28 05:19:53;;;;;;;249.77;26.20;;;;;;;1.27;100.00;98614.66;5037465;28;20043;-56
2023/01/28 05:22:18;;;;;;;234.95;27.40;;;;;;;1.33;100.00;98612.38;5037323;28;20087;-57
2023/01/28 05:24:44;;;;;;;197.20;27.45;;;;;;;1.40;100.00;98609.25;5039005;28;20037;-55
2023/01/28 05:27:09;;;;;;;177.38;27.42;;;;;;;1.25;100.00;98611.16;5036744;28;20126;-57
2023/01/28 05:29:34;;;;;;;276.85;31.63;;;;;;;1.26;100.00;98613.78;5035310;28;20754;-57
2023/01/28 05:32:00;;;;;;;211.25;28.92;;;;;;;1.30;100.00;98614.81;5036882;28;20042;-56
2023/01/28 05:34:25;;;;;;;202.07;31.60;;;;;;;1.28;100.00;98618.97;5037850;28;20728;-57
2023/01/28 05:36:51;;;;;;;225.15;32.15;;;;;;;1.40;100.00;98623.75;5036330;28;20051;-56
2023/01/28 05:39:16;;;;;;;189.73;29.83;;;;;;;1.35;100.00;98620.13;5038320;28;20767;-56
2023/01/28 05:41:41;;;;;;;256.85;32.35;;;;;;;1.46;100.00;98610.34;5037514;28;20763;-56
2023/01/28 05:44:07;;;;;;;207.55;32.90;;;;;;;1.47;100.00;98609.50;5035670;28;20029;-58
2023/01/28 05:46:32;;;;;;;241.25;31.15;;;;;;;1.39;100.00;98612.66;5036673;28;20037;-58
2023/01/28 05:48:57;;;;;;;268.42;32.15;;;;;;;1.37;100.00;98621.94;5038477;28;20116;-57
2023/01/28 05:51:23;;;;;;;204.77;31.17;;;;;;;1.29;100.00;98621.63;5035563;28;20056;-56
2023/01/28 05:53:48;;;;;;;231.27;30.70;;;;;;;1.28;100.00;98625.00;5037986;28;20033;-57
2023/01/28 05:56:14;;;;;;;172.75;28.63;;;;;;;1.26;100.00;98624.03;5037403;28;20065;-57
2023/01/28 05:58:39;;;;;;;216.13;27.33;;;;;;;1.18;100.00;98622.81;5036625;28;20040;-58
2023/01/28 06:01:04;;;;;;;245.50;30.55;;;;;;;1.30;100.00;98619.94;5001833;28;20648;-57
2023/01/28 06:03:30;;;;;;;211.27;30.70;;;;;;;1.23;100.00;98628.16;5037370;28;20112;-56
2023/01/28 06:05:55;;;;;;;198.60;27.95;;;;;;;1.31;100.00;98624.25;5036202;28;20068;-56
2023/01/28 06:08:20;;;;;;;195.73;28.55;;;;;;;1.30;100.00;98627.63;5038871;28;20040;-56
2023/01/28 06:10:46;;;;;;;221.57;31.20;;;;;;;1.25;100.00;98626.53;5037891;28;20767;-57
2023/01/28 06:13:11;;;;;;;251.77;33.58;;;;;;;1.31;100.00;98629.38;5036613;28;20025;-56
2023/01/28 06:15:37;;;;;;;214.55;30.98;;;;;;;1.26;100.00;98636.00;5036961;28;20061;-58
2023/01/28 06:18:02;;;;;;;230.00;31.42;;;;;;;1.22;100.00;98640.09;5035861;28;20422;-58
2023/01/28 06:20:28;;;;;;;253.85;33.63;;;;;;;1.29;100.00;98634.44;5034894;28;20124;-58
2023/01/28 06:22:53;;;;;;;233.40;33.28;;;;;;;1.36;100.00;98635.56;5036254;28;20550;-56
2023/01/28 06:25:19;;;;;;;220.20;32.60;;;;;;;1.44;100.00;98638.47;5037062;28;20029;-57
2023/01/28 06:27:45;;;;;;;223.60;34.65;;;;;;;1.43;100.00;98637.59;5037162;28;20018;-57
2023/01/28 06:30:10;;;;;;;243.23;31.42;;;;;;;1.32;100.00;98641.38;5037122;28;20024;-56
2023/01/28 06:32:36;;;;;;;274.90;34.38;;;;;;;1.33;100.00;98645.69;5036037;28;20025;-57
2023/01/28 06:35:01;;;;;;;205.63;30.67;;;;;;;1.36;100.00;98652.63;5023968;28;20462;-56
2023/01/28 06:37:27;;;;;;;268.83;31.13;;;;;;;1.29;100.00;98654.94;5033490;28;20546;-56
2023/01/28 06:39:52;;;;;;;264.50;34.22;;;;;;;1.31;100.00;98655.00;5038205;28;20082;-57
2023/01/28 06:42:17;;;;;;;223.88;33.45;;;;;;;1.45;100.00;98663.31;5036785;28;20390;-57
2023/01/28 06:44:43;;;;;;;235.45;35.28;;;;;;;1.39;100.00;98661.34;5035537;28;20047;-56
2023/01/28 06:47:09;;;;;;;225.02;36.17;;;;;;;1.47;100.00;98664.25;5035603;28;20029;-56
2023/01/28 06:49:38;;;;;;;276.10;34.17;;;;;;;1.53;100.00;98663.66;5035946;28;20020;-56
2023/01/28 06:52:03;;;;;;;287.13;34.25;;;;;;;1.43;100.00;98662.34;5035947;28;20029;-59
2023/01/28 06:54:29;;;;;;;238.48;35.05;;;;;;;1.47;100.00;98674.50;5036717;28;20032;-57
2023/01/28 06:56:54;;;;;;;233.90;35.22;;;;;;;1.54;100.00;98670.50;5018980;28;20147;-58
2023/01/28 06:59:20;;;;;;;210.48;27.13;;;;;;;1.51;100.00;98675.50;5035932;28;20080;-57
2023/01/28 07:01:45;;;;;;;208.38;30.10;;;;;;;1.44;100.00;98671.78;5036295;28;20148;-57
2023/01/28 07:04:11;;;;;;;277.83;34.17;;;;;;;1.58;100.00;98677.53;5038270;28;20067;-58
2023/01/28 07:06:36;;;;;;;214.43;29.50;;;;;;;1.56;100.00;98676.59;5022928;28;20041;-56
2023/01/28 07:09:01;;;;;;;218.15;31.55;;;;;;;1.50;100.00;98682.34;5014881;28;20863;-55
2023/01/28 07:11:27;;;;;;;276.63;33.85;;;;;;;1.43;100.00;98676.06;5014296;28;20474;-57
2023/01/28 07:13:52;;;;;;;224.57;33.63;;;;;;;1.46;100.00;98674.44;5016234;28;20104;-57
2023/01/28 07:16:18;;;;;;;227.52;34.78;;;;;;;1.48;100.00;98689.06;5024585;28;20047;-57
2023/01/28 07:18:43;;;;;;;205.10;34.58;;;;;;;1.58;100.00;98690.34;5036514;28;20694;-57
2023/01/28 07:21:08;;;;;;;247.23;24.63;;;;;;;1.59;100.00;98689.53;5035461;28;20036;-57
2023/01/28 07:23:34;;;;;;;247.10;25.85;;;;;;;1.52;100.00;98692.66;5035142;28;20139;-56
2023/01/28 07:26:03;;;;;;;185.02;26.30;;;;;;;1.50;100.00;98697.72;5034547;28;20502;-57
2023/01/28 07:28:28;;;;;;;218.60;26.77;;;;;;;1.53;100.00;98697.84;5032164;28;20107;-57
2023/01/28 07:30:54;;;;;;;192.85;25.02;;;;;;;1.56;100.00;98699.69;5034168;28;20044;-56
2023/01/28 07:33:20;;;;;;;220.32;29.02;;;;;;;1.71;100.00;98706.28;5034283;28;20014;-56
2023/01/28 07:35:46;;;;;;;246.68;29.23;;;;;;;1.64;100.00;98700.88;5033697;28;20036;-58
2023/01/28 07:38:11;;;;;;;208.35;30.90;;;;;;;1.69;100.00;98704.53;5019423;28;20563;-57
2023/01/28 07:40:37;;;;;;;188.95;28.52;;;;;;;1.60;100.00;98701.53;5033323;28;20036;-56
2023/01/28 07:43:02;;;;;;;219.35;28.92;;;;;;;1.70;100.00;98700.25;5035228;28;20021;-57
2023/01/28 07:45:29;;;;;;;226.85;32.47;;;;;;;1.97;100.00;98702.28;5035026;28;20127;-56
2023/01/28 07:47:54;;;;;;;255.38;33.00;;;;;;;1.91;100.00;98702.91;5034754;28;20063;-56
2023/01/28 07:50:20;;;;;;;215.30;31.63;;;;;;;1.83;100.00;98701.69;5034935;28;20047;-56
2023/01/28 07:52:45;;;;;;;231.52;32.72;;;;;;;1.93;100.00;98703.81;5035680;28;20026;-57
2023/01/28 07:55:14;;;;;;;245.23;33.50;;;;;;;2.03;100.00;98704.22;5015722;28;20107;-56
2023/01/28 07:57:49;;;;;;;200.40;23.20;;;;;;;1.90;100.00;98706.25;5035169;28;20049;-56
2023/01/28 08:00:15;;;;;;;208.35;28.55;;;;;;;1.96;100.00;98703.06;5034488;28;20064;-56
2023/01/28 08:02:43;;;;;;;179.98;27.02;;;;;;;1.93;100.00;98714.09;5027415;28;20028;-57
2023/01/28 08:05:09;;;;;;;164.52;28.23;;;;;;;1.97;100.00;98712.56;5035762;28;20033;-56
2023/01/28 08:07:34;;;;;;;151.93;24.33;;;;;;;1.93;100.00;98703.81;5037059;28;20017;-58
2023/01/28 08:09:59;;;;;;;189.18;27.45;;;;;;;2.01;100.00;98716.97;5037073;28;20039;-56
2023/01/28 08:12:25;;;;;;;225.27;29.42;;;;;;;1.99;100.00;98708.34;5035450;28;20056;-56
2023/01/28 08:14:50;;;;;;;186.50;29.45;;;;;;;2.13;100.00;98714.06;5037067;28;20063;-57
2023/01/28 08:17:16;;;;;;;191.93;26.35;;;;;;;1.89;100.00;98721.59;5037656;28;20406;-55
2023/01/28 08:19:41;;;;;;;282.50;31.02;;;;;;;2.04;100.00;98716.25;5036044;28;20125;-57
2023/01/28 08:22:06;;;;;;;185.15;30.75;;;;;;;2.19;100.00;98723.72;5035396;28;20128;-56
2023/01/28 08:24:31;;;;;;;164.52;25.08;;;;;;;2.21;100.00;98727.22;5035598;28;20112;-56
2023/01/28 08:26:57;;;;;;;175.18;27.52;;;;;;;2.14;100.00;98727.75;5035277;28;20517;-56
2023/01/28 08:29:22;;;;;;;181.98;28.05;;;;;;;2.19;100.00;98729.72;5030954;28;20128;-56
2023/01/28 08:31:48;;;;;;;209.38;29.83;;;;;;;2.40;100.00;98731.44;5035816;28;20505;-55
2023/01/28 08:34:13;;;;;;;196.18;30.08;;;;;;;2.43;100.00;98726.44;5036681;28;20931;-58
2023/01/28 08:36:38;;;;;;;199.57;29.80;;;;;;;2.46;100.00;98721.41;5035941;28;20045;-57
2023/01/28 08:39:04;;;;;;;228.63;30.55;;;;;;;2.00;100.00;98729.75;5039879;28;20119;-57
2023/01/28 08:41:30;;;;;;;163.27;30.20;;;;;;;2.16;100.00;98726.16;5038804;28;20107;-55
2023/01/28 08:43:55;;;;;;;158.50;30.02;;;;;;;2.45;100.00;98727.34;5040195;28;20107;-55
2023/01/28 08:46:21;;;;;;;173.38;30.27;;;;;;;2.36;100.00;98731.22;5039218;28;20360;-57
2023/01/28 08:48:48;;;;;;;202.57;31.63;;;;;;;2.51;100.00;98726.72;5041721;28;20461;-55
2023/01/28 08:51:14;;;;;;;253.98;33.10;;;;;;;2.33;100.00;98734.53;5039279;28;20044;-55
2023/01/28 08:53:39;;;;;;;182.88;29.35;;;;;;;2.18;100.00;98737.34;5040324;28;20018;-56
2023/01/28 08:56:05;;;;;;;188.75;29.45;;;;;;;2.49;100.00;98736.09;5038046;28;20044;-56
2023/01/28 08:58:31;;;;;;;189.70;28.60;;;;;;;2.50;100.00;98734.38;5040949;28;20124;-56
2023/01/28 09:00:56;;;;;;;205.80;29.13;;;;;;;2.23;100.00;98741.00;5039038;28;20406;-56
2023/01/28 09:03:22;;;;;;;161.02;23.10;;;;;;;2.32;100.00;98738.81;5039648;28;20091;-56
2023/01/28 09:05:49;;;;;;;160.98;21.23;;;;;;;2.61;100.00;98740.84;5040056;28;20797;-55
2023/01/28 09:08:15;;;;;;;161.88;17.35;;;;;;;2.68;100.00;98734.25;5040145;28;20039;-56
2023/01/28 09:10:41;;;;;;;210.88;20.48;;;;;;;2.81;100.00;98733.03;5039120;28;20025;-56
2023/01/28 09:13:08;;;;;;;155.07;19.25;;;;;;;2.93;100.00;98735.22;5041238;28;20025;-56
2023/01/28 09:15:35;;;;;;;167.05;18.65;;;;;;;2.96;100.00;98743.03;5038310;28;20029;-56
2023/01/28 09:18:00;;;;;;;132.75;13.88;;;;;;;3.21;100.00;98737.19;5037952;28;20032;-56
2023/01/28 09:20:26;;;;;;;189.20;17.65;;;;;;;3.21;100.00;98744.00;5039832;28;20033;-56
2023/01/28 09:22:52;;;;;;;183.63;18.48;;;;;;;2.99;100.00;98743.16;5040527;28;20041;-56
2023/01/28 09:25:17;;;;;;;148.80;18.98;;;;;;;3.29;100.00;98752.88;5038882;28;20033;-55
2023/01/28 09:27:43;;;;;;;161.52;19.85;;;;;;;3.24;100.00;98749.28;5040461;28;20702;-56
2023/01/28 09:30:09;;;;;;;160.55;20.30;;;;;;;2.89;100.00;98747.06;5026959;28;20028;-58
2023/01/28 09:32:35;;;;;;;216.77;22.70;;;;;;;3.01;100.00;98754.41;5039407;28;20509;-57
2023/01/28 09:35:01;;;;;;;181.48;21.48;;;;;;;3.21;100.00;98759.44;5036579;28;20164;-56
2023/01/28 09:37:26;;;;;;;166.70;22.33;;;;;;;3.50;100.00;98760.53;5020387;28;20120;-57
2023/01/28 09:39:52;;;;;;;182.45;21.70;;;;;;;3.28;100.00;98766.56;5038887;28;20036;-55
2023/01/28 09:42:39;;;;;;;150.60;18.08;;;;;;;3.09;100.00;98762.41;5039138;28;20037;-57
2023/01/28 09:45:15;;;;;;;145.60;20.23;;;;;;;3.30;100.00;98767.50;5039336;28;20033;-56
2023/01/28 09:47:46;;;;;;;167.57;23.35;;;;;;;3.02;100.00;98773.25;5039709;28;20149;-56
2023/01/28 09:50:26;;;;;;;191.13;24.25;;;;;;;3.35;100.00;98780.53;5037177;28;20520;-58
2023/01/28 09:52:56;;;;;;;151.45;22.35;;;;;;;3.17;100.00;98778.13;5039215;28;20025;-58
2023/01/28 09:55:31;;;;;;;170.23;23.83;;;;;;;3.24;100.00;98777.56;5038419;28;20035;-56
2023/01/28 09:57:57;;;;;;;179.85;21.00;;;;;;;3.23;100.00;98778.38;5035855;28;20024;-57
2023/01/28 10:00:39;;;;;;;174.63;21.58;;;;;;;3.38;100.00;98778.09;5035736;28;20047;-58
2023/01/28 10:03:17;;;;;;;179.77;22.58;;;;;;;3.22;100.00;98780.06;5037498;28;20025;-56
2023/01/28 10:06:07;;;;;;;219.90;24.38;;;;;;;3.08;100.00;98783.78;5036000;28;20049;-55
2023/01/28 10:08:54;;;;;;;182.93;24.67;;;;;;;3.09;100.00;98777.81;5037821;28;20087;-57
2023/01/28 10:11:22;;;;;;;193.90;24.27;;;;;;;3.07;100.00;98776.88;5035945;28;20041;-55
2023/01/28 10:14:01;;;;;;;204.25;24.00;;;;;;;2.99;100.00;98769.75;5038273;28;20750;-56
2023/01/28 10:16:49;;;;;;;175.50;20.52;;;;;;;2.25;100.00;98779.56;5039392;28;20041;-56
2023/01/28 10:19:32;;;;;;;191.95;24.98;;;;;;;2.07;100.00;98775.38;5038551;28;20029;-58
2023/01/28 10:22:17;;;;;;;207.88;24.25;;;;;;;2.31;100.00;98769.56;5034914;28;20045;-57
2023/01/28 10:24:53;;;;;;;218.23;24.00;;;;;;;2.65;100.00;98776.09;5039122;28;20101;-55
2023/01/28 10:27:22;;;;;;;155.68;24.58;;;;;;;2.87;100.00;98774.41;5038248;28;20045;-57
2023/01/28 10:29:50;;;;;;;246.00;21.23;;;;;;;2.90;100.00;98771.97;5036540;28;20088;-58
2023/01/28 10:32:33;;;;;;;169.35;21.92;;;;;;;3.11;100.00;98774.50;5038296;28;20151;-56
2023/01/28 10:35:00;;;;;;;168.40;23.23;;;;;;;3.20;100.00;98768.81;5030571;28;20079;-56
2023/01/28 10:37:27;;;;;;;189.10;24.90;;;;;;;3.38;100.00;98767.81;5038765;28;20136;-58
2023/01/28 10:39:56;;;;;;;154.95;24.15;;;;;;;3.37;100.00;98763.44;5037940;28;20503;-58
2023/01/28 10:42:34;;;;;;;182.05;22.58;;;;;;;3.41;100.00;98762.75;5039680;28;20537;-55
2023/01/28 10:45:14;;;;;;;245.00;28.13;;;;;;;3.43;100.00;98755.97;5031738;28;20045;-57
2023/01/28 10:47:54;;;;;;;197.98;26.88;;;;;;;3.68;100.00;98762.06;5037458;28;20151;-55
2023/01/28 10:50:26;;;;;;;169.95;27.77;;;;;;;3.98;100.00;98753.69;5036683;28;20075;-57
2023/01/28 10:52:57;;;;;;;181.60;26.70;;;;;;;3.99;100.00;98747.69;5038845;28;20021;-55
2023/01/28 10:55:46;;;;;;;172.50;26.73;;;;;;;4.03;100.00;98754.72;5038892;28;21077;-58
2023/01/28 10:58:27;;;;;;;176.73;26.55;;;;;;;4.48;100.00;98751.88;5039076;28;20811;-57
2023/01/28 11:00:56;;;;;;;304.40;29.08;;;;;;;4.32;100.00;98753.09;5029210;28;20056;-57
2023/01/28 11:03:26;;;;;;;236.85;28.55;;;;;;;4.53;100.00;98770.97;5033419;28;20099;-56
2023/01/28 11:05:53;;;;;;;305.77;28.58;;;;;;;4.77;100.00;98763.19;5034561;28;20045;-57
2023/01/28 11:08:24;;;;;;;239.23;17.30;;;;;;;4.73;100.00;98761.31;5035123;28;20483;-57
2023/01/28 11:10:51;;;;;;;261.50;11.95;;;;;;;3.96;100.00;98763.03;5033412;28;20040;-56
2023/01/28 11:13:24;;;;;;;176.73;6.60;;;;;;;3.88;100.00;98762.78;5033342;28;20537;-57
2023/01/28 11:15:51;;;;;;;162.45;7.60;;;;;;;3.62;100.00;98769.53;5032893;28;20096;-57
2023/01/28 11:18:23;;;;;;;139.50;6.15;;;;;;;3.77;100.00;98767.53;5033077;28;20029;-57
2023/01/28 11:20:56;;;;;;;186.65;7.82;;;;;;;4.06;100.00;98769.38;5034705;28;20426;-57
2023/01/28 11:23:25;;;;;;;206.75;8.25;;;;;;;4.50;100.00;98771.75;5035799;28;20111;-58
2023/01/28 11:26:16;;;;;;;210.15;7.35;;;;;;;4.56;100.00;98769.38;5034903;28;20041;-57
2023/01/28 11:28:42;;;;;;;210.02;8.55;;;;;;;4.80;100.00;98771.00;5034477;28;20032;-56
2023/01/28 11:31:12;;;;;;;207.25;8.55;;;;;;;4.39;100.00;98770.50;5032176;28;20034;-57
2023/01/28 11:33:42;;;;;;;186.23;7.93;;;;;;;4.51;100.00;98783.81;5034388;28;20600;-57
2023/01/28 11:36:29;;;;;;;178.75;7.60;;;;;;;4.43;100.00;98778.38;5034529;28;20041;-58
2023/01/28 11:38:58;;;;;;;200.90;8.02;;;;;;;4.60;100.00;98774.63;5034545;28;20037;-56
2023/01/28 11:41:33;;;;;;;205.55;8.55;;;;;;;5.02;100.00;98773.41;5034271;28;20033;-56
2023/01/28 11:44:10;;;;;;;133.20;6.28;;;;;;;5.22;100.00;98766.28;5036202;28;20021;-57
2023/01/28 11:46:47;;;;;;;282.67;10.02;;;;;;;5.14;100.00;98770.31;5030963;28;20191;-57
2023/01/28 11:49:33;;;;;;;209.43;9.07;;;;;;;5.48;100.00;98771.34;5033371;28;20380;-57
2023/01/28 11:52:22;;;;;;;193.93;8.30;;;;;;;5.79;100.00;98766.22;5033219;28;20047;-56
2023/01/28 11:55:24;;;;;;;189.98;8.32;;;;;;;5.46;100.00;98773.88;5034761;28;20519;-55